createdAt,value
2022-09-12T00:05:06.187Z,12.49
2022-09-12T00:10:28.008Z,12.40
2022-09-12T00:15:49.788Z,12.45
2022-09-12T00:21:11.599Z,12.37
2022-09-12T00:26:34.073Z,12.47
2022-09-12T00:31:55.858Z,12.46
2022-09-12T00:37:17.685Z,12.39
2022-09-12T00:42:39.481Z,12.47
2022-09-12T00:48:03.271Z,12.32
2022-09-12T00:53:25.947Z,12.28
2022-09-12T00:59:02.352Z,12.23
2022-09-12T01:04:27.799Z,12.16
2022-09-12T01:09:49.858Z,12.26
2022-09-12T01:15:12.644Z,12.16
2022-09-12T01:21:08.543Z,12.15
2022-09-12T01:26:55.113Z,12.04
2022-09-12T01:32:16.853Z,11.53
2022-09-12T01:38:04.730Z,11.84
2022-09-12T01:43:38.978Z,11.94
2022-09-12T01:49:15.830Z,11.93
2022-09-12T01:54:43.270Z,11.99
2022-09-12T02:00:10.208Z,11.85
2022-09-12T02:05:40.407Z,11.96
2022-09-12T02:11:08.026Z,11.91
2022-09-12T02:16:56.741Z,11.80
2022-09-12T02:22:22.516Z,11.84
2022-09-12T02:27:50.003Z,11.75
2022-09-12T02:33:26.515Z,11.74
2022-09-12T02:38:48.825Z,11.69
2022-09-12T02:44:10.660Z,11.80
2022-09-12T02:49:33.084Z,11.71
2022-09-12T02:54:55.373Z,11.72
2022-09-12T03:00:17.350Z,11.75
2022-09-12T03:05:49.955Z,11.73
2022-09-12T03:11:47.307Z,11.78
2022-09-12T03:17:35.756Z,11.87
2022-09-12T03:23:07.454Z,11.88
2022-09-12T03:28:31.084Z,11.91
2022-09-12T03:33:52.858Z,11.93
2022-09-12T03:39:15.018Z,11.95
2022-09-12T03:44:36.837Z,11.95
2022-09-12T03:49:58.606Z,11.89
2022-09-12T03:55:20.409Z,11.99
2022-09-12T04:00:42.242Z,11.93
2022-09-12T04:06:04.326Z,11.66
2022-09-12T04:11:26.149Z,11.76
2022-09-12T04:16:47.994Z,11.79
2022-09-12T04:22:09.786Z,11.82
2022-09-12T04:27:31.576Z,11.76
2022-09-12T04:32:53.346Z,11.75
2022-09-12T04:38:15.238Z,11.79
2022-09-12T04:43:37.016Z,11.69
2022-09-12T04:48:58.839Z,11.56
2022-09-12T04:54:21.114Z,11.61
2022-09-12T04:59:42.872Z,11.61
2022-09-12T05:05:05.234Z,11.71
2022-09-12T05:10:26.999Z,11.63
2022-09-12T05:15:56.105Z,11.65
2022-09-12T05:21:20.433Z,11.72
2022-09-12T05:26:42.263Z,11.68
2022-09-12T05:32:04.181Z,11.69
2022-09-12T05:37:25.954Z,11.71
2022-09-12T05:42:47.733Z,11.61
2022-09-12T05:48:09.662Z,11.71
2022-09-12T05:53:31.482Z,11.89
2022-09-12T05:58:56.275Z,11.96
2022-09-12T06:04:18.108Z,12.01
2022-09-12T06:09:39.962Z,11.97
2022-09-12T06:15:01.730Z,12.03
2022-09-12T06:20:23.578Z,11.81
2022-09-12T06:25:49.122Z,12.30
2022-09-12T06:31:13.779Z,12.29
2022-09-12T06:36:41.918Z,12.67
2022-09-12T06:42:03.790Z,12.36
2022-09-12T06:47:25.673Z,12.58
2022-09-12T06:52:49.553Z,12.79
2022-09-12T06:58:11.338Z,12.90
2022-09-12T07:03:34.020Z,13.23
2022-09-12T07:08:58.051Z,13.56
2022-09-12T07:14:19.836Z,13.20
2022-09-12T07:19:41.605Z,13.15
2022-09-12T07:25:03.576Z,12.98
2022-09-12T07:30:25.451Z,12.89
2022-09-12T07:35:47.296Z,13.03
2022-09-12T07:41:24.350Z,13.26
2022-09-12T07:46:46.132Z,13.64
2022-09-12T07:52:09.188Z,13.86
2022-09-12T07:57:31.036Z,14.10
2022-09-12T08:02:53.488Z,14.24
2022-09-12T08:08:15.287Z,13.90
2022-09-12T08:13:39.076Z,14.41
2022-09-12T08:19:02.114Z,14.48
2022-09-12T08:24:23.912Z,14.61
2022-09-12T08:29:45.678Z,14.80
2022-09-12T08:35:07.761Z,14.69
2022-09-12T08:40:30.115Z,14.57
2022-09-12T08:46:02.309Z,14.67
2022-09-12T08:51:24.942Z,14.90
2022-09-12T08:56:48.151Z,15.16
2022-09-12T09:02:31.721Z,14.78
2022-09-12T09:08:14.978Z,15.04
2022-09-12T09:14:01.888Z,15.01
2022-09-12T09:19:34.520Z,15.18
2022-09-12T09:25:02.317Z,15.25
2022-09-12T09:30:24.119Z,15.23
2022-09-12T09:35:48.779Z,15.72
2022-09-12T09:41:25.028Z,15.85
2022-09-12T09:46:50.272Z,16.17
2022-09-12T09:52:16.218Z,16.06
2022-09-12T09:57:40.013Z,15.98
2022-09-12T10:03:16.994Z,15.80
2022-09-12T10:08:38.857Z,15.70
2022-09-12T10:14:00.725Z,15.51
2022-09-12T10:19:33.028Z,15.50
2022-09-12T10:24:58.141Z,15.50
2022-09-12T10:30:21.540Z,15.25
2022-09-12T10:35:47.752Z,15.96
2022-09-12T10:41:11.552Z,16.15
2022-09-12T10:46:33.357Z,15.87
2022-09-12T10:51:57.869Z,15.68
2022-09-12T10:57:31.540Z,15.36
2022-09-12T11:03:09.482Z,15.48
2022-09-12T11:08:40.289Z,15.34
2022-09-12T11:14:20.815Z,15.22
2022-09-12T11:20:20.172Z,15.19
2022-09-12T11:26:03.329Z,16.07
2022-09-12T11:32:02.735Z,15.80
2022-09-12T11:37:51.636Z,15.38
2022-09-12T11:43:19.498Z,15.48
2022-09-12T11:48:51.593Z,15.55
2022-09-12T11:54:41.434Z,15.77
2022-09-12T12:00:06.730Z,15.89
2022-09-12T12:05:57.656Z,15.91
2022-09-12T12:11:28.498Z,15.74
2022-09-12T12:16:50.712Z,15.49
2022-09-12T12:22:21.868Z,15.36
2022-09-12T12:28:00.566Z,15.84
2022-09-12T12:33:22.276Z,16.19
2022-09-12T12:38:44.157Z,16.38
2022-09-12T12:44:43.332Z,16.60
2022-09-12T12:50:10.894Z,16.38
2022-09-12T12:55:38.074Z,16.14
2022-09-12T13:01:12.135Z,16.24
2022-09-12T13:06:36.920Z,15.59
2022-09-12T13:12:05.434Z,15.83
2022-09-12T13:17:41.508Z,15.77
2022-09-12T13:23:03.690Z,15.90
2022-09-12T13:28:29.807Z,16.24
2022-09-12T13:33:55.554Z,16.54
2022-09-12T13:39:26.034Z,17.21
2022-09-12T13:44:51.768Z,17.29
2022-09-12T13:50:18.648Z,16.57
2022-09-12T13:55:45.034Z,16.39
2022-09-12T14:01:09.812Z,16.65
2022-09-12T14:06:45.750Z,16.64
2022-09-12T14:12:15.516Z,16.97
2022-09-12T14:17:38.702Z,16.43
2022-09-12T14:23:18.003Z,15.91
2022-09-12T14:28:44.431Z,15.94
2022-09-12T14:34:17.765Z,15.70
2022-09-12T14:39:42.946Z,15.61
2022-09-12T14:45:16.406Z,15.82
2022-09-12T14:50:38.236Z,15.78
2022-09-12T14:56:11.925Z,15.49
2022-09-12T15:01:33.758Z,15.62
2022-09-12T15:06:55.611Z,15.24
2022-09-12T15:12:17.424Z,15.23
2022-09-12T15:17:39.247Z,15.23
2022-09-12T15:23:01.102Z,15.15
2022-09-12T15:28:23.985Z,15.07
2022-09-12T15:33:45.907Z,15.01
2022-09-12T15:39:09.236Z,14.96
2022-09-12T15:44:31.100Z,14.77
2022-09-12T15:49:52.922Z,14.90
2022-09-12T15:55:20.989Z,14.97
2022-09-12T16:00:42.821Z,14.99
2022-09-12T16:06:05.408Z,14.84
2022-09-12T16:11:27.429Z,14.68
2022-09-12T16:16:54.099Z,14.47
2022-09-12T16:22:15.776Z,14.11
2022-09-12T16:27:37.752Z,14.49
2022-09-12T16:32:59.826Z,14.41
2022-09-12T16:38:22.231Z,14.48
2022-09-12T16:43:44.680Z,14.39
2022-09-12T16:49:06.617Z,14.42
2022-09-12T16:54:28.595Z,14.46
2022-09-12T16:59:50.371Z,14.35
2022-09-12T17:05:12.180Z,14.50
2022-09-12T17:10:34.004Z,14.56
2022-09-12T17:15:56.291Z,14.61
2022-09-12T17:21:18.261Z,14.63
2022-09-12T17:26:40.473Z,14.58
2022-09-12T17:32:02.564Z,14.64
2022-09-12T17:37:24.734Z,14.68
2022-09-12T17:42:46.883Z,14.65
2022-09-12T17:48:11.306Z,14.69
2022-09-12T17:53:33.187Z,14.74
2022-09-12T17:58:57.255Z,14.76
2022-09-12T18:04:19.569Z,14.76
2022-09-12T18:09:42.224Z,14.74
2022-09-12T18:15:04.313Z,14.72
2022-09-12T18:20:26.435Z,14.61
2022-09-12T18:25:48.595Z,14.65
2022-09-12T18:31:14.456Z,14.66
2022-09-12T18:36:36.360Z,14.41
2022-09-12T18:41:58.264Z,14.57
2022-09-12T18:47:20.353Z,14.54
2022-09-12T18:52:42.180Z,14.48
2022-09-12T18:58:04.021Z,14.44
2022-09-12T19:03:26.511Z,14.56
2022-09-12T19:08:49.959Z,14.60
2022-09-12T19:14:12.091Z,14.63
2022-09-12T19:19:36.603Z,14.66
2022-09-12T19:25:00.626Z,14.22
2022-09-12T19:30:22.459Z,14.56
2022-09-12T19:35:44.325Z,14.64
2022-09-12T19:41:12.269Z,14.50
2022-09-12T19:46:36.694Z,14.30
2022-09-12T19:51:58.597Z,14.13
2022-09-12T19:57:20.371Z,13.95
2022-09-12T20:02:42.570Z,13.78
2022-09-12T20:08:04.513Z,13.58
2022-09-12T20:13:26.383Z,13.48
2022-09-12T20:18:52.123Z,13.37
2022-09-12T20:24:14.485Z,13.26
2022-09-12T20:29:36.371Z,13.13
2022-09-12T20:34:58.127Z,13.03
2022-09-12T20:40:19.921Z,12.82
2022-09-12T20:45:41.767Z,12.81
2022-09-12T20:51:03.906Z,12.73
2022-09-12T20:56:26.520Z,12.64
2022-09-12T21:01:48.479Z,12.51
2022-09-12T21:07:10.369Z,12.43
2022-09-12T21:12:32.150Z,12.40
2022-09-12T21:17:53.961Z,12.29
2022-09-12T21:23:15.735Z,12.17
2022-09-12T21:28:37.543Z,12.19
2022-09-12T21:33:59.271Z,12.17
2022-09-12T21:39:21.057Z,12.10
2022-09-12T21:44:42.835Z,12.10
2022-09-12T21:50:09.236Z,12.21
2022-09-12T21:55:31.053Z,12.26
2022-09-12T22:00:52.858Z,12.29
2022-09-12T22:06:14.900Z,12.33
2022-09-12T22:11:36.663Z,12.35
2022-09-12T22:16:58.504Z,12.34
2022-09-12T22:22:20.293Z,12.34
2022-09-12T22:27:42.082Z,12.24
2022-09-12T22:33:03.952Z,12.19
2022-09-12T22:38:25.720Z,12.11
2022-09-12T22:43:47.493Z,11.99
2022-09-12T22:49:09.631Z,11.82
2022-09-12T22:54:31.431Z,11.80
2022-09-12T22:59:53.223Z,11.67
2022-09-12T23:05:15.128Z,11.55
2022-09-12T23:10:37.950Z,11.50
2022-09-12T23:16:01.473Z,11.41
2022-09-12T23:21:23.642Z,11.39
2022-09-12T23:26:45.423Z,11.20
2022-09-12T23:32:07.220Z,11.18
2022-09-12T23:37:29.603Z,11.06
2022-09-12T23:42:51.384Z,10.92
2022-09-12T23:48:13.395Z,10.85
2022-09-12T23:53:35.556Z,10.71
2022-09-12T23:58:57.339Z,10.67
